Time,TemperatureF,DewpointF,PressureIn,WindDirection,WindDirectionDegrees,WindSpeedMPH,WindSpeedGustMPH,Humidity,HourlyPrecipIn,Conditions,Clouds,dailyrainin,SoftwareType,DateUTC
2013-06-02 06:45:00,63.9,62.7,30.05,SSW,193,1.0,21.0,96,0.08,,,0.12,Wunderground v.1.15,2013-06-02 10:45:00,
2013-06-02 06:46:00,63.9,62.7,30.05,SSW,193,1.0,21.0,96,0.08,,,0.12,Wunderground v.1.15,2013-06-02 10:46:00,
2013-06-02 06:47:00,63.9,62.7,30.05,SSW,193,2.0,21.0,96,0.08,,,0.12,Wunderground v.1.15,2013-06-02 10:47:00,
2013-06-02 06:49:00,63.9,62.7,30.05,SSW,193,1.0,21.0,96,0.08,,,0.12,Wunderground v.1.15,2013-06-02 10:49:00,
2013-06-02 06:51:00,63.8,62.6,30.05,WSW,242,1.0,21.0,96,0.08,,,0.12,Wunderground v.1.15,2013-06-02 10:51:00,
2013-06-02 06:56:00,63.8,62.6,30.05,WSW,242,1.0,21.0,96,0.05,,,0.13,Wunderground v.1.15,2013-06-02 10:56:00,
2013-06-02 07:01:00,63.8,62.6,30.06,West,271,1.0,21.0,96,0.05,,,0.13,Wunderground v.1.15,2013-06-02 11:01:00,
2013-06-02 07:06:00,63.8,62.6,30.06,West,271,1.0,21.0,96,0.05,,,0.13,Wunderground v.1.15,2013-06-02 11:06:00,
2013-06-02 07:11:00,63.8,62.9,30.06,West,271,0.0,21.0,97,0.04,,,0.13,Wunderground v.1.15,2013-06-02 11:11:00,
2013-06-02 07:16:00,63.9,63.0,30.06,West,271,0.0,21.0,97,0.00,,,0.13,Wunderground v.1.15,2013-06-02 11:16:00,
2013-06-02 07:22:00,63.9,63.0,30.06,West,271,0.0,21.0,97,0.00,,,0.13,Wunderground v.1.15,2013-06-02 11:22:00,
2013-06-02 07:27:00,64.0,63.1,30.06,West,271,0.0,21.0,97,0.00,,,0.13,Wunderground v.1.15,2013-06-02 11:27:00,
2013-06-02 07:32:00,64.0,63.1,30.06,West,271,0.0,21.0,97,0.00,,,0.13,Wunderground v.1.15,2013-06-02 11:32:00,
2013-06-02 07:38:00,64.1,63.2,30.06,West,271,0.0,21.0,97,0.00,,,0.13,Wunderground v.1.15,2013-06-02 11:38:00,
2013-06-02 09:38:00,64.6,63.7,30.04,SW,232,1.0,21.0,97,0.00,,,0.29,Wunderground v.1.15,2013-06-02 13:38:00,
2013-06-02 09:59:00,65.4,64.2,30.04,WSW,249,0.0,21.0,96,0.00,,,0.29,Wunderground v.1.15,2013-06-02 13:59:00,
2013-06-02 10:05:00,65.6,64.4,30.04,WSW,249,0.0,21.0,96,0.00,,,0.29,Wunderground v.1.15,2013-06-02 14:05:00,
2013-06-02 10:10:00,65.7,64.5,30.04,WSW,249,1.0,1.0,96,0.00,,,0.29,Wunderground v.1.15,2013-06-02 14:10:00,
2013-06-02 10:15:00,65.8,64.6,30.04,WSW,249,1.0,21.0,96,0.00,,,0.29,Wunderground v.1.15,2013-06-02 14:15:00,
2013-06-02 10:21:00,65.9,64.7,30.04,WSW,249,0.0,21.0,96,0.00,,,0.29,Wunderground v.1.15,2013-06-02 14:21:00,
2013-06-02 10:26:00,66.1,64.9,30.04,WSW,249,0.0,21.0,96,0.00,,,0.29,Wunderground v.1.15,2013-06-02 14:26:00,
2013-06-02 10:31:00,66.2,65.0,30.05,WSW,256,1.0,21.0,96,0.00,,,0.29,Wunderground v.1.15,2013-06-02 14:31:00,
2013-06-02 10:37:00,66.2,64.7,30.04,WNW,282,2.0,21.0,95,0.00,,,0.30,Wunderground v.1.15,2013-06-02 14:37:00,
2013-06-02 10:42:00,66.2,65.0,30.04,WNW,282,1.0,21.0,96,0.00,,,0.30,Wunderground v.1.15,2013-06-02 14:42:00,
2013-06-02 10:48:00,66.3,65.1,30.04,WNW,282,1.0,21.0,96,0.00,,,0.30,Wunderground v.1.15,2013-06-02 14:48:00,
2013-06-02 10:53:00,66.5,65.3,30.04,WNW,282,0.0,21.0,96,0.00,,,0.30,Wunderground v.1.15,2013-06-02 14:53:00,
2013-06-02 10:58:00,66.7,65.5,30.04,WNW,282,0.0,21.0,96,0.00,,,0.30,Wunderground v.1.15,2013-06-02 14:58:00,
2013-06-02 11:03:00,66.8,65.6,30.04,WNW,282,0.0,21.0,96,0.00,,,0.30,Wunderground v.1.15,2013-06-02 15:03:00,
2013-06-02 11:09:00,67.0,65.5,30.04,WNW,282,0.0,21.0,95,0.00,,,0.30,Wunderground v.1.15,2013-06-02 15:09:00,
2013-06-02 11:14:00,67.1,65.3,30.04,WNW,282,0.0,21.0,94,0.00,,,0.30,Wunderground v.1.15,2013-06-02 15:14:00,
2013-06-02 11:20:00,67.4,65.9,30.04,West,269,0.0,21.0,95,0.00,,,0.30,Wunderground v.1.15,2013-06-02 15:20:00,
2013-06-02 11:25:00,67.6,65.8,30.04,West,269,0.0,21.0,94,0.00,,,0.30,Wunderground v.1.15,2013-06-02 15:25:00,
2013-06-02 11:30:00,67.7,65.6,30.04,West,269,0.0,21.0,93,0.00,,,0.30,Wunderground v.1.15,2013-06-02 15:30:00,
2013-06-02 11:35:00,67.9,66.1,30.04,West,269,1.0,21.0,94,0.00,,,0.30,Wunderground v.1.15,2013-06-02 15:35:00,
2013-06-02 11:41:00,68.1,66.6,30.04,West,269,1.0,21.0,95,0.00,,,0.30,Wunderground v.1.15,2013-06-02 15:41:00,
2013-06-02 11:47:00,68.2,66.4,30.04,West,269,1.0,21.0,94,0.00,,,0.30,Wunderground v.1.15,2013-06-02 15:47:00,
2013-06-02 11:53:00,68.3,66.5,30.04,West,269,1.0,21.0,94,0.00,,,0.30,Wunderground v.1.15,2013-06-02 15:53:00,
2013-06-02 11:58:00,68.6,67.1,30.04,WSW,254,1.0,21.0,95,0.00,,,0.30,Wunderground v.1.15,2013-06-02 15:58:00,
2013-06-02 12:03:00,68.8,67.0,30.03,NW,313,1.0,21.0,94,0.00,,,0.30,Wunderground v.1.15,2013-06-02 16:03:00,
2013-06-02 12:09:00,68.7,66.3,30.03,West,262,1.0,21.0,92,0.00,,,0.30,Wunderground v.1.15,2013-06-02 16:09:00,
2013-06-02 12:14:00,68.6,66.5,30.04,West,262,1.0,21.0,93,0.00,,,0.30,Wunderground v.1.15,2013-06-02 16:14:00,
2013-06-02 12:20:00,68.5,66.4,30.04,West,267,2.0,2.0,93,0.00,,,0.31,Wunderground v.1.15,2013-06-02 16:20:00,
2013-06-02 12:25:00,68.6,66.8,30.04,West,267,2.0,21.0,94,0.00,,,0.31,Wunderground v.1.15,2013-06-02 16:25:00,
2013-06-02 12:31:00,68.6,66.8,30.04,West,267,1.0,21.0,94,0.00,,,0.31,Wunderground v.1.15,2013-06-02 16:31:00,
2013-06-02 12:36:00,68.6,66.8,30.04,SW,222,2.0,21.0,94,0.00,,,0.31,Wunderground v.1.15,2013-06-02 16:36:00,
2013-06-02 12:41:00,68.7,66.9,30.04,SSE,157,3.0,21.0,94,0.00,,,0.31,Wunderground v.1.15,2013-06-02 16:41:00,
2013-06-02 12:47:00,68.7,67.2,30.03,South,175,3.0,21.0,95,0.00,,,0.31,Wunderground v.1.15,2013-06-02 16:47:00,
2013-06-02 12:52:00,68.7,67.2,30.03,SSE,148,3.0,21.0,95,0.00,,,0.31,Wunderground v.1.15,2013-06-02 16:52:00,
2013-06-02 12:58:00,68.7,67.2,30.02,SE,132,2.0,21.0,95,0.00,,,0.31,Wunderground v.1.15,2013-06-02 16:58:00,
2013-06-02 13:03:00,69.0,67.8,30.02,East,97,2.0,21.0,96,0.00,,,0.31,Wunderground v.1.15,2013-06-02 17:03:00,
2013-06-02 13:09:00,69.1,67.3,30.03,SSE,153,2.0,21.0,94,0.00,,,0.31,Wunderground v.1.15,2013-06-02 17:09:00,
2013-06-02 13:14:00,69.1,67.3,30.03,SSE,149,4.0,21.0,94,0.00,,,0.31,Wunderground v.1.15,2013-06-02 17:14:00,
2013-06-02 13:19:00,69.1,67.3,30.03,SSE,150,5.0,21.0,94,0.00,,,0.31,Wunderground v.1.15,2013-06-02 17:19:00,
2013-06-02 13:24:00,69.1,67.3,30.03,SSE,165,6.0,21.0,94,0.00,,,0.31,Wunderground v.1.15,2013-06-02 17:24:00,
2013-06-02 13:30:00,69.1,66.7,30.03,South,187,7.0,7.0,92,0.00,,,0.31,Wunderground v.1.15,2013-06-02 17:30:00,
2013-06-02 13:36:00,69.2,67.1,30.03,South,175,6.0,21.0,93,0.00,,,0.31,Wunderground v.1.15,2013-06-02 17:36:00,
2013-06-02 13:41:00,69.4,67.0,30.03,South,181,5.0,21.0,92,0.00,,,0.31,Wunderground v.1.15,2013-06-02 17:41:00,
2013-06-02 13:46:00,69.4,67.0,30.03,South,171,5.0,21.0,92,0.00,,,0.31,Wunderground v.1.15,2013-06-02 17:46:00,
2013-06-02 13:52:00,69.4,67.3,30.03,SSE,157,5.0,21.0,93,0.00,,,0.31,Wunderground v.1.15,2013-06-02 17:52:00,
2013-06-02 13:57:00,69.4,67.0,30.02,SSE,153,5.0,21.0,92,0.00,,,0.31,Wunderground v.1.15,2013-06-02 17:57:00,
2013-06-02 14:02:00,69.5,67.4,30.02,SSW,192,5.0,21.0,93,0.00,,,0.31,Wunderground v.1.15,2013-06-02 18:02:00,
2013-06-02 14:08:00,69.7,67.0,30.01,SE,146,5.0,21.0,91,0.00,,,0.31,Wunderground v.1.15,2013-06-02 18:08:00,
2013-06-02 14:13:00,69.6,67.2,30.01,SE,140,5.0,21.0,92,0.00,,,0.31,Wunderground v.1.15,2013-06-02 18:13:00,
2013-06-02 14:19:00,69.7,67.0,30.01,SE,140,5.0,21.0,91,0.00,,,0.31,Wunderground v.1.15,2013-06-02 18:19:00,
2013-06-02 14:24:00,70.1,67.7,30.01,SSW,202,6.0,21.0,92,0.00,,,0.31,Wunderground v.1.15,2013-06-02 18:24:00,
2013-06-02 14:29:00,70.8,67.7,30.01,South,190,7.0,21.0,90,0.00,,,0.31,Wunderground v.1.15,2013-06-02 18:29:00,
2013-06-02 14:35:00,71.2,68.1,30.00,South,171,7.0,21.0,90,0.00,,,0.31,Wunderground v.1.15,2013-06-02 18:35:00,
2013-06-02 14:40:00,71.0,67.6,30.00,SSE,163,6.0,6.0,89,0.00,,,0.31,Wunderground v.1.15,2013-06-02 18:40:00,
2013-06-02 14:45:00,71.2,68.1,30.00,SE,146,6.0,21.0,90,0.00,,,0.31,Wunderground v.1.15,2013-06-02 18:45:00,
2013-06-02 14:51:00,70.8,67.4,30.00,SSW,195,7.0,21.0,89,0.00,,,0.31,Wunderground v.1.15,2013-06-02 18:51:00,
2013-06-02 14:56:00,70.6,67.5,30.00,SE,132,6.0,21.0,90,0.00,,,0.31,Wunderground v.1.15,2013-06-02 18:56:00,
2013-06-02 15:02:00,70.9,67.5,29.99,South,170,5.0,21.0,89,0.00,,,0.31,Wunderground v.1.15,2013-06-02 19:02:00,
2013-06-02 15:07:00,70.9,67.5,29.99,SSE,154,6.0,21.0,89,0.00,,,0.31,Wunderground v.1.15,2013-06-02 19:07:00,
2013-06-02 15:12:00,70.9,67.2,29.98,SSW,193,7.0,21.0,88,0.00,,,0.31,Wunderground v.1.15,2013-06-02 19:12:00,
2013-06-02 15:18:00,70.8,67.1,29.98,SSE,157,7.0,21.0,88,0.00,,,0.31,Wunderground v.1.15,2013-06-02 19:18:00,
2013-06-02 15:23:00,71.0,67.3,29.98,SSE,157,6.0,21.0,88,0.00,,,0.31,Wunderground v.1.15,2013-06-02 19:23:00,
2013-06-02 15:29:00,71.0,67.3,29.98,SSE,159,7.0,21.0,88,0.00,,,0.31,Wunderground v.1.15,2013-06-02 19:29:00,
2013-06-02 15:34:00,70.8,67.1,29.97,South,169,10.0,21.0,88,0.00,,,0.31,Wunderground v.1.15,2013-06-02 19:34:00,
2013-06-02 15:40:00,70.9,67.5,29.97,SSE,165,10.0,10.0,89,0.00,,,0.31,Wunderground v.1.15,2013-06-02 19:40:00,
2013-06-02 15:45:00,71.0,67.3,29.98,SSE,158,8.0,21.0,88,0.00,,,0.31,Wunderground v.1.15,2013-06-02 19:45:00,
2013-06-02 15:50:00,71.0,67.3,29.98,South,184,8.0,8.0,88,0.00,,,0.31,Wunderground v.1.15,2013-06-02 19:50:00,
2013-06-02 15:55:00,71.1,67.4,29.98,WNW,298,6.0,21.0,88,0.00,,,0.31,Wunderground v.1.15,2013-06-02 19:55:00,
2013-06-02 16:01:00,69.7,64.6,29.98,NW,315,6.0,8.0,84,0.00,,,0.31,Wunderground v.1.15,2013-06-02 20:01:00,
2013-06-02 16:06:00,68.3,63.9,29.98,WNW,293,6.0,21.0,86,0.00,,,0.31,Wunderground v.1.15,2013-06-02 20:06:00,
2013-06-02 16:11:00,67.6,63.9,29.98,ESE,105,4.0,21.0,88,0.00,,,0.32,Wunderground v.1.15,2013-06-02 20:11:00,
2013-06-02 16:16:00,67.5,64.1,29.98,NNW,344,3.0,21.0,89,0.00,,,0.32,Wunderground v.1.15,2013-06-02 20:16:00,
2013-06-02 16:22:00,67.6,64.2,29.99,NW,322,2.0,21.0,89,0.00,,,0.32,Wunderground v.1.15,2013-06-02 20:22:00,
2013-06-02 16:28:00,67.5,64.1,29.99,NW,307,2.0,21.0,89,0.00,,,0.32,Wunderground v.1.15,2013-06-02 20:28:00,
2013-06-02 16:33:00,67.2,64.2,30.00,NW,313,3.0,21.0,90,0.00,,,0.33,Wunderground v.1.15,2013-06-02 20:33:00,
2013-06-02 16:39:00,66.2,63.2,30.00,NNW,327,5.0,21.0,90,0.21,,,0.35,Wunderground v.1.15,2013-06-02 20:39:00,
2013-06-02 16:44:00,65.8,63.7,29.99,NE,50,4.0,21.0,93,0.24,,,0.37,Wunderground v.1.15,2013-06-02 20:44:00,
2013-06-02 16:49:00,65.6,63.5,30.00,WNW,301,2.0,21.0,93,0.09,,,0.37,Wunderground v.1.15,2013-06-02 20:49:00,
2013-06-02 16:54:00,65.5,63.7,29.98,NW,305,1.0,21.0,94,0.06,,,0.38,Wunderground v.1.15,2013-06-02 20:54:00,
2013-06-02 16:59:00,65.4,63.6,29.97,NE,37,3.0,21.0,94,0.06,,,0.38,Wunderground v.1.15,2013-06-02 20:59:00,
2013-06-02 17:05:00,65.3,63.2,29.98,NE,35,5.0,21.0,93,0.06,,,0.39,Wunderground v.1.15,2013-06-02 21:05:00,
2013-06-02 17:10:00,65.5,63.4,29.98,North,5,2.0,21.0,93,0.06,,,0.39,Wunderground v.1.15,2013-06-02 21:10:00,
2013-06-02 17:15:00,65.7,63.6,29.99,South,188,2.0,21.0,93,0.05,,,0.39,Wunderground v.1.15,2013-06-02 21:15:00,
2013-06-02 17:20:00,65.7,63.6,30.01,SSW,210,5.0,21.0,93,0.04,,,0.40,Wunderground v.1.15,2013-06-02 21:20:00,
2013-06-02 17:26:00,65.6,62.9,30.01,SSW,207,9.0,21.0,91,0.04,,,0.40,Wunderground v.1.15,2013-06-02 21:26:00,
2013-06-02 17:32:00,65.3,63.2,30.00,WSW,250,5.0,21.0,93,0.51,,,0.44,Wunderground v.1.15,2013-06-02 21:32:00,
2013-06-02 17:38:00,65.1,63.3,29.99,West,259,2.0,21.0,94,0.25,,,0.48,Wunderground v.1.15,2013-06-02 21:38:00,
2013-06-02 17:43:00,65.0,63.5,29.98,ESE,121,1.0,21.0,95,0.18,,,0.49,Wunderground v.1.15,2013-06-02 21:43:00,
2013-06-02 17:49:00,64.9,63.4,29.99,ESE,107,1.0,21.0,95,0.12,,,0.50,Wunderground v.1.15,2013-06-02 21:49:00,
2013-06-02 17:55:00,65.0,63.8,29.99,East,97,1.0,21.0,96,0.05,,,0.50,Wunderground v.1.15,2013-06-02 21:55:00,
2013-06-02 18:00:00,65.1,63.9,29.99,East,97,0.0,21.0,96,0.04,,,0.50,Wunderground v.1.15,2013-06-02 22:00:00,
2013-06-02 18:05:00,65.0,63.5,29.99,East,97,0.0,21.0,95,0.00,,,0.50,Wunderground v.1.15,2013-06-02 22:05:00,
2013-06-02 18:10:00,64.9,63.4,29.99,East,97,0.0,21.0,95,0.00,,,0.50,Wunderground v.1.15,2013-06-02 22:10:00,
2013-06-02 18:15:00,64.8,63.6,29.99,East,98,0.0,21.0,96,0.00,,,0.51,Wunderground v.1.15,2013-06-02 22:15:00,
2013-06-02 18:20:00,64.7,63.5,29.99,East,98,1.0,1.0,96,0.00,,,0.51,Wunderground v.1.15,2013-06-02 22:20:00,
2013-06-02 18:25:00,64.7,63.5,29.99,NNE,16,1.0,21.0,96,0.07,,,0.52,Wunderground v.1.15,2013-06-02 22:25:00,
2013-06-02 18:31:00,64.6,63.7,30.00,North,355,1.0,21.0,97,0.12,,,0.53,Wunderground v.1.15,2013-06-02 22:31:00,
2013-06-02 18:36:00,64.4,63.5,30.00,North,355,1.0,21.0,97,0.09,,,0.54,Wunderground v.1.15,2013-06-02 22:36:00,
2013-06-02 18:41:00,64.3,63.4,30.00,North,355,1.0,21.0,97,0.13,,,0.55,Wunderground v.1.15,2013-06-02 22:41:00,
2013-06-02 18:47:00,64.3,63.4,29.99,NE,39,1.0,21.0,97,0.17,,,0.57,Wunderground v.1.15,2013-06-02 22:47:00,
2013-06-02 18:52:00,64.3,63.4,29.99,NE,39,1.0,21.0,97,0.11,,,0.58,Wunderground v.1.15,2013-06-02 22:52:00,
2013-06-02 18:57:00,64.2,63.3,29.99,NE,40,1.0,21.0,97,0.17,,,0.59,Wunderground v.1.15,2013-06-02 22:57:00,
2013-06-02 19:03:00,64.1,63.5,29.99,NE,40,0.0,21.0,98,0.11,,,0.60,Wunderground v.1.15,2013-06-02 23:03:00,
2013-06-02 19:08:00,64.1,63.5,29.99,NE,40,0.0,21.0,98,0.14,,,0.61,Wunderground v.1.15,2013-06-02 23:08:00,
2013-06-02 19:13:00,64.3,63.7,29.99,NE,40,0.0,21.0,98,0.11,,,0.62,Wunderground v.1.15,2013-06-02 23:13:00,
2013-06-02 19:18:00,64.2,63.6,29.99,NNE,17,1.0,21.0,98,0.13,,,0.63,Wunderground v.1.15,2013-06-02 23:18:00,
2013-06-02 19:23:00,64.0,63.1,29.99,NE,44,1.0,21.0,97,0.10,,,0.64,Wunderground v.1.15,2013-06-02 23:23:00,
2013-06-02 19:29:00,64.0,63.4,29.99,NE,37,1.0,21.0,98,0.13,,,0.65,Wunderground v.1.15,2013-06-02 23:29:00,
2013-06-02 19:34:00,64.0,63.4,29.98,NE,51,2.0,21.0,98,0.09,,,0.66,Wunderground v.1.15,2013-06-02 23:34:00,
2013-06-02 19:39:00,64.0,63.4,29.98,NE,44,3.0,21.0,98,0.12,,,0.67,Wunderground v.1.15,2013-06-02 23:39:00,
2013-06-02 19:44:00,64.1,63.5,29.99,NNE,28,2.0,21.0,98,0.09,,,0.68,Wunderground v.1.15,2013-06-02 23:44:00,
2013-06-02 19:50:00,64.1,63.5,29.99,NNE,27,1.0,21.0,98,0.13,,,0.69,Wunderground v.1.15,2013-06-02 23:50:00,
2013-06-02 19:55:00,64.0,63.4,29.99,NNE,26,0.0,21.0,98,0.08,,,0.70,Wunderground v.1.15,2013-06-02 23:55:00,
2013-06-02 20:01:00,64.0,63.4,29.99,NW,319,1.0,21.0,98,0.11,,,0.71,Wunderground v.1.15,2013-06-03 00:01:00,
2013-06-02 20:06:00,63.9,63.3,29.99,NNE,16,1.0,21.0,98,0.10,,,0.71,Wunderground v.1.15,2013-06-03 00:06:00,
2013-06-02 20:12:00,64.0,63.4,29.99,NNE,17,1.0,21.0,98,0.07,,,0.72,Wunderground v.1.15,2013-06-03 00:12:00,
2013-06-02 20:17:00,64.0,63.4,29.99,NNE,17,0.0,21.0,98,0.11,,,0.73,Wunderground v.1.15,2013-06-03 00:17:00,
2013-06-02 20:23:00,64.0,63.4,30.00,NNE,17,0.0,21.0,98,0.08,,,0.74,Wunderground v.1.15,2013-06-03 00:23:00,
2013-06-02 20:28:00,64.0,63.4,30.00,NNE,30,0.0,21.0,98,0.10,,,0.75,Wunderground v.1.15,2013-06-03 00:28:00,
2013-06-02 20:33:00,63.9,63.3,30.00,East,90,2.0,21.0,98,0.09,,,0.75,Wunderground v.1.15,2013-06-03 00:33:00,
2013-06-02 20:38:00,63.8,63.2,30.00,SSE,159,2.0,21.0,98,0.08,,,0.76,Wunderground v.1.15,2013-06-03 00:38:00,
2013-06-02 20:44:00,63.8,63.2,29.99,ESE,102,2.0,21.0,98,0.09,,,0.77,Wunderground v.1.15,2013-06-03 00:44:00,
2013-06-02 20:49:00,63.7,63.1,29.99,East,96,3.0,21.0,98,0.08,,,0.78,Wunderground v.1.15,2013-06-03 00:49:00,
2013-06-02 20:55:00,63.8,63.5,29.99,East,96,2.0,21.0,99,0.08,,,0.78,Wunderground v.1.15,2013-06-03 00:55:00,
2013-06-02 21:00:00,63.7,63.4,30.00,North,360,1.0,21.0,99,0.10,,,0.79,Wunderground v.1.15,2013-06-03 01:00:00,
2013-06-02 21:06:00,63.8,63.5,30.00,North,355,1.0,21.0,99,0.07,,,0.80,Wunderground v.1.15,2013-06-03 01:06:00,
2013-06-02 21:11:00,63.8,63.5,29.99,NNW,342,1.0,21.0,99,0.09,,,0.81,Wunderground v.1.15,2013-06-03 01:11:00,
2013-06-02 21:17:00,63.8,63.5,29.99,NNE,32,1.0,21.0,99,0.09,,,0.81,Wunderground v.1.15,2013-06-03 01:17:00,
2013-06-02 21:23:00,63.7,63.4,29.99,NNE,32,1.0,21.0,99,0.07,,,0.82,Wunderground v.1.15,2013-06-03 01:23:00,
2013-06-02 21:29:00,63.8,63.5,29.99,NNE,32,0.0,21.0,99,0.07,,,0.83,Wunderground v.1.15,2013-06-03 01:29:00,
2013-06-02 21:34:00,63.7,63.4,29.99,NNE,32,0.0,21.0,99,0.07,,,0.83,Wunderground v.1.15,2013-06-03 01:34:00,
2013-06-02 21:39:00,63.6,63.3,29.98,NNE,32,1.0,21.0,99,0.07,,,0.84,Wunderground v.1.15,2013-06-03 01:39:00,
2013-06-02 21:44:00,63.6,63.3,29.98,NNE,32,0.0,21.0,99,0.07,,,0.84,Wunderground v.1.15,2013-06-03 01:44:00,